首页
METAR-TAF:

METAR-TAF

机场 :

布萊茲諾頓皇家空軍基地

Brize Norton, 英格兰

纬度: 51-45N, 经度: 001-35W, 海拔: 88米

当前天气观测

该预报发布于11分钟前的07:50 UTC
风速7节,风向西南
温度 5°C
湿度 75%
气压 1004 hPa
能见度10公里或以上
少量云层高于3000英尺

METAR: EGVN 170750Z 22007KT 9999 FEW030 05/01 Q1004 NOSIG RMK BLU BLU

时间: 08:01 (08:01 UTC)

预报

该预报发布于3小时和28分钟前的04:33 UTC
预报有效从17日的 06点(UTC)到 18日的 06点(UTC)
风速12节,风向西南
能见度10公里或以上
少量云层高于2000英尺
几率 30% :
短暂存在
从 17日的 06点(UTC)到 17日的 08点(UTC)
风速15节,风向西转西南,有时为25节阵风
能見度: 7000
散云层高于2000英尺
阵雨
短暂存在
从 17日的 08点(UTC)到 17日的 13点(UTC)
风速15节,风向西转西南,有时为25节阵风
能見度: 5000
多云层高于1200英尺
阵雨
几率 30% :
短暂存在
从 17日的 13点(UTC)到 17日的 17点(UTC)
风速15节,风向西,有时为25节阵风
能見度: 7000
散云层高于2000英尺, 积雨云.
阵雨

TAF: EGVN 170433Z 1706/1806 22012KT 9999 FEW020 PROB30 TEMPO 1706/1708 24015G25KT 7000 SHRA SCT020 TEMPO 1708/1713 25015G25KT 5000 SHRA BKN012 PROB30 TEMPO 1713/1717 26015G25KT 7000 SHRA SCT020CB

超过4000个机场的气象观测和天气预报(METAR&TAF报告)。

可查询的气象台以黄色和红色小点在地图上表示。

将鼠标移到小点上方,可查看气象台名称。

然后点击查看天气观测和预报。

如需切换地图:点击带黑十字的绿色按钮放大地图;点击带横线的绿色按钮缩小地图;或者点击绿色箭头查看邻近地区的地图。


METAR-TAF: